Traben Trarbach, Germania

02:52 PM CET die 01o November, anno 2014 (GMT +0100)
Mittelmosel | Change Station
CLOSE
Current Station
Personal Weather Stations
Location: Traben-Trarbach, RHEINLAND-PFALZ
Elevation: 367 ft
Nearby Weather Stations

Elev 367 ft 49.97 °N, 7.11 °E | Updated 3 minutes ago

Clear
Serena
55.7 °F
Feels Like 55.7 °F
N
0.0
Ventus Variabilis Ventus from Aquilo
Gusts 1.0 mph

Hodie
High -- | Low -- °F
--% Chance of Precip.
Yesterday
High -- | Low -- °F
Precip. -- in
7:20 AM 5:08 PM
Waxing Gibbous, 66% visible
Pressio 30.15 in
Visibilitas -9999.0 milia passuum
Clouds
Frigus in quo Ros apparet 41 °F
Umor 58%
Rainfall 0.00 in
Snow Depth Not available.
UV Not available.
Pollen Not available.
Air Quality Not available.
Flu Activity Not available.
METAR EDFH 011350Z 14005KT CAVOK 17/13 Q1021

More Conditions Fewer Conditions

Pressio 30.15 in
Visibilitas -9999.0 milia passuum
Clouds
Frigus in quo Ros apparet 41 °F
Umor 58%
Rainfall 0.00 in
Snow Depth Not available.
UV Not available.
Pollen Not available.
Air Quality Not available.
Flu Activity Not available.
METAR EDFH 011350Z 14005KT CAVOK 17/13 Q1021

More Conditions Fewer Conditions

10-Day Weather Forecast

Almanac

Astronomy

Nov. 01, 2014 Rise Set
Actual Time
Civil Twilight
Nautical Twilight
Astronomical Twilight
Moon
Length Of Visible Light
Length of Day
Tomorrow will be .
, % of the Moon is Illuminated

Today's Extremes

Country Highs Country Lows

Community

WunderPhotos

Upload Photos

1,766,937 photos uploaded!

WunderBlogs® & News

Nearby

Air Quality

  Air Quality AQ Index Pollutant
Not available.

Snow Depth

Station Depth Elevation

Earthquake Activity

City Distance Mag. Time & Date
Minimum magnitude displayed is 2.5.

Coastal Water Temperatures

Locus Calor

Nearby Weather Stations